sensor_id;sensor_type;location;lat;lon;timestamp;P1;durP1;ratioP1;P2;durP2;ratioP2
76745;SDS011;65671;49.976;20.038;2023-05-28T00:00:05;7.50;;;3.92;;
76745;SDS011;65671;49.976;20.038;2023-05-28T00:02:32;7.43;;;3.78;;
76745;SDS011;65671;49.976;20.038;2023-05-28T00:04:59;7.95;;;3.85;;
76745;SDS011;65671;49.976;20.038;2023-05-28T00:07:26;10.15;;;3.75;;
76745;SDS011;65671;49.976;20.038;2023-05-28T00:09:54;9.25;;;4.07;;
76745;SDS011;65671;49.976;20.038;2023-05-28T00:12:23;11.30;;;3.83;;
76745;SDS011;65671;49.976;20.038;2023-05-28T00:14:49;7.60;;;4.28;;
76745;SDS011;65671;49.976;20.038;2023-05-28T00:17:16;6.40;;;3.92;;
76745;SDS011;65671;49.976;20.038;2023-05-28T00:19:42;7.60;;;4.55;;
76745;SDS011;65671;49.976;20.038;2023-05-28T00:22:08;9.45;;;4.57;;
76745;SDS011;65671;49.976;20.038;2023-05-28T00:24:34;8.40;;;4.20;;
76745;SDS011;65671;49.976;20.038;2023-05-28T00:27:00;9.80;;;4.38;;
76745;SDS011;65671;49.976;20.038;2023-05-28T00:29:26;9.88;;;4.72;;
76745;SDS011;65671;49.976;20.038;2023-05-28T00:31:52;6.65;;;4.28;;
76745;SDS011;65671;49.976;20.038;2023-05-28T00:34:22;9.50;;;4.15;;
76745;SDS011;65671;49.976;20.038;2023-05-28T00:36:48;8.60;;;4.32;;
76745;SDS011;65671;49.976;20.038;2023-05-28T00:39:14;6.85;;;4.25;;
76745;SDS011;65671;49.976;20.038;2023-05-28T00:41:40;6.97;;;4.32;;
76745;SDS011;65671;49.976;20.038;2023-05-28T00:44:06;11.50;;;4.43;;
76745;SDS011;65671;49.976;20.038;2023-05-28T00:46:34;8.60;;;4.20;;
76745;SDS011;65671;49.976;20.038;2023-05-28T00:49:00;8.07;;;4.30;;
76745;SDS011;65671;49.976;20.038;2023-05-28T00:51:26;9.45;;;3.95;;
76745;SDS011;65671;49.976;20.038;2023-05-28T00:53:53;10.63;;;4.30;;
76745;SDS011;65671;49.976;20.038;2023-05-28T00:56:19;10.43;;;4.22;;
76745;SDS011;65671;49.976;20.038;2023-05-28T00:58:47;7.07;;;4.15;;
76745;SDS011;65671;49.976;20.038;2023-05-28T01:01:14;7.75;;;4.45;;
76745;SDS011;65671;49.976;20.038;2023-05-28T01:03:40;8.95;;;4.40;;
76745;SDS011;65671;49.976;20.038;2023-05-28T01:06:06;9.90;;;4.65;;
76745;SDS011;65671;49.976;20.038;2023-05-28T01:08:35;7.82;;;4.70;;
76745;SDS011;65671;49.976;20.038;2023-05-28T01:11:02;7.68;;;4.43;;
76745;SDS011;65671;49.976;20.038;2023-05-28T01:13:29;7.25;;;4.03;;
76745;SDS011;65671;49.976;20.038;2023-05-28T01:15:56;8.88;;;5.20;;
76745;SDS011;65671;49.976;20.038;2023-05-28T01:18:21;7.53;;;4.28;;
76745;SDS011;65671;49.976;20.038;2023-05-28T01:20:47;8.25;;;4.20;;
76745;SDS011;65671;49.976;20.038;2023-05-28T01:23:15;7.68;;;4.25;;
76745;SDS011;65671;49.976;20.038;2023-05-28T01:25:43;6.53;;;3.70;;
76745;SDS011;65671;49.976;20.038;2023-05-28T01:28:12;8.45;;;3.70;;
76745;SDS011;65671;49.976;20.038;2023-05-28T01:30:38;8.13;;;4.50;;
76745;SDS011;65671;49.976;20.038;2023-05-28T01:33:04;8.40;;;3.83;;
76745;SDS011;65671;49.976;20.038;2023-05-28T01:35:30;5.80;;;3.22;;
76745;SDS011;65671;49.976;20.038;2023-05-28T01:37:56;8.13;;;4.18;;
76745;SDS011;65671;49.976;20.038;2023-05-28T01:40:26;8.45;;;3.80;;
76745;SDS011;65671;49.976;20.038;2023-05-28T01:42:52;7.38;;;3.50;;
76745;SDS011;65671;49.976;20.038;2023-05-28T01:45:22;8.52;;;3.70;;
76745;SDS011;65671;49.976;20.038;2023-05-28T01:47:49;9.60;;;4.18;;
76745;SDS011;65671;49.976;20.038;2023-05-28T01:50:16;8.48;;;3.92;;
76745;SDS011;65671;49.976;20.038;2023-05-28T01:52:42;7.60;;;4.00;;
76745;SDS011;65671;49.976;20.038;2023-05-28T01:55:08;8.80;;;4.13;;
76745;SDS011;65671;49.976;20.038;2023-05-28T01:57:38;7.03;;;3.83;;
76745;SDS011;65671;49.976;20.038;2023-05-28T02:00:04;9.70;;;3.85;;
76745;SDS011;65671;49.976;20.038;2023-05-28T02:02:34;5.63;;;3.35;;
76745;SDS011;65671;49.976;20.038;2023-05-28T02:05:00;10.18;;;4.13;;
76745;SDS011;65671;49.976;20.038;2023-05-28T02:07:26;8.70;;;3.70;;
76745;SDS011;65671;49.976;20.038;2023-05-28T02:09:51;6.72;;;3.72;;
76745;SDS011;65671;49.976;20.038;2023-05-28T02:12:17;5.75;;;3.53;;
76745;SDS011;65671;49.976;20.038;2023-05-28T02:14:43;7.82;;;3.55;;
76745;SDS011;65671;49.976;20.038;2023-05-28T02:17:09;7.90;;;3.65;;
76745;SDS011;65671;49.976;20.038;2023-05-28T02:19:35;6.47;;;4.00;;
76745;SDS011;65671;49.976;20.038;2023-05-28T02:22:02;6.70;;;4.05;;
76745;SDS011;65671;49.976;20.038;2023-05-28T02:24:36;6.32;;;3.58;;
76745;SDS011;65671;49.976;20.038;2023-05-28T02:27:02;10.45;;;3.78;;
76745;SDS011;65671;49.976;20.038;2023-05-28T02:29:29;7.18;;;4.07;;
76745;SDS011;65671;49.976;20.038;2023-05-28T02:31:54;6.97;;;3.83;;
76745;SDS011;65671;49.976;20.038;2023-05-28T02:34:20;7.03;;;3.47;;
76745;SDS011;65671;49.976;20.038;2023-05-28T02:36:45;7.72;;;3.58;;
76745;SDS011;65671;49.976;20.038;2023-05-28T02:39:11;6.28;;;3.53;;
76745;SDS011;65671;49.976;20.038;2023-05-28T02:41:36;7.07;;;3.78;;
76745;SDS011;65671;49.976;20.038;2023-05-28T02:44:02;8.75;;;3.63;;
76745;SDS011;65671;49.976;20.038;2023-05-28T02:46:28;7.68;;;3.67;;
76745;SDS011;65671;49.976;20.038;2023-05-28T02:48:53;8.25;;;3.80;;
76745;SDS011;65671;49.976;20.038;2023-05-28T02:51:19;6.90;;;4.22;;
76745;SDS011;65671;49.976;20.038;2023-05-28T02:53:45;7.63;;;4.00;;
76745;SDS011;65671;49.976;20.038;2023-05-28T02:56:10;6.32;;;4.18;;
76745;SDS011;65671;49.976;20.038;2023-05-28T02:58:36;6.88;;;3.88;;
76745;SDS011;65671;49.976;20.038;2023-05-28T03:01:02;6.38;;;3.60;;
76745;SDS011;65671;49.976;20.038;2023-05-28T03:03:28;6.10;;;3.75;;
76745;SDS011;65671;49.976;20.038;2023-05-28T03:05:54;6.30;;;3.42;;
76745;SDS011;65671;49.976;20.038;2023-05-28T03:08:20;7.88;;;4.15;;
76745;SDS011;65671;49.976;20.038;2023-05-28T03:10:46;6.75;;;3.83;;
76745;SDS011;65671;49.976;20.038;2023-05-28T03:13:11;6.05;;;3.13;;
76745;SDS011;65671;49.976;20.038;2023-05-28T03:15:37;5.45;;;3.45;;
76745;SDS011;65671;49.976;20.038;2023-05-28T03:18:02;7.72;;;3.50;;
76745;SDS011;65671;49.976;20.038;2023-05-28T03:20:29;6.57;;;3.45;;
76745;SDS011;65671;49.976;20.038;2023-05-28T03:22:55;7.70;;;3.40;;
76745;SDS011;65671;49.976;20.038;2023-05-28T03:25:25;7.43;;;3.40;;
76745;SDS011;65671;49.976;20.038;2023-05-28T03:27:52;7.05;;;3.78;;
76745;SDS011;65671;49.976;20.038;2023-05-28T03:30:18;7.22;;;3.55;;
76745;SDS011;65671;49.976;20.038;2023-05-28T03:32:44;6.32;;;3.58;;
76745;SDS011;65671;49.976;20.038;2023-05-28T03:35:09;8.45;;;3.47;;
76745;SDS011;65671;49.976;20.038;2023-05-28T03:37:35;5.82;;;3.50;;
76745;SDS011;65671;49.976;20.038;2023-05-28T03:40:01;5.20;;;3.70;;
76745;SDS011;65671;49.976;20.038;2023-05-28T03:42:29;6.65;;;3.65;;
76745;SDS011;65671;49.976;20.038;2023-05-28T03:44:55;7.60;;;4.20;;
76745;SDS011;65671;49.976;20.038;2023-05-28T03:47:20;7.25;;;3.88;;
76745;SDS011;65671;49.976;20.038;2023-05-28T03:49:46;8.77;;;3.58;;
76745;SDS011;65671;49.976;20.038;2023-05-28T03:52:12;7.30;;;3.97;;
76745;SDS011;65671;49.976;20.038;2023-05-28T03:54:37;6.22;;;3.47;;
76745;SDS011;65671;49.976;20.038;2023-05-28T03:57:03;8.55;;;3.65;;
76745;SDS011;65671;49.976;20.038;2023-05-28T03:59:29;6.75;;;4.00;;
76745;SDS011;65671;49.976;20.038;2023-05-28T04:01:54;5.70;;;3.70;;
76745;SDS011;65671;49.976;20.038;2023-05-28T04:04:19;6.85;;;3.72;;
76745;SDS011;65671;49.976;20.038;2023-05-28T04:06:45;6.57;;;3.67;;
76745;SDS011;65671;49.976;20.038;2023-05-28T04:09:11;9.13;;;4.15;;
76745;SDS011;65671;49.976;20.038;2023-05-28T04:11:36;5.88;;;3.80;;
76745;SDS011;65671;49.976;20.038;2023-05-28T04:14:03;9.45;;;3.63;;
76745;SDS011;65671;49.976;20.038;2023-05-28T04:16:30;4.93;;;3.20;;
76745;SDS011;65671;49.976;20.038;2023-05-28T04:18:56;6.05;;;3.33;;
76745;SDS011;65671;49.976;20.038;2023-05-28T04:21:22;7.97;;;3.78;;
76745;SDS011;65671;49.976;20.038;2023-05-28T04:23:48;7.85;;;3.75;;
76745;SDS011;65671;49.976;20.038;2023-05-28T04:26:14;7.78;;;3.97;;
76745;SDS011;65671;49.976;20.038;2023-05-28T04:28:41;6.60;;;3.00;;
76745;SDS011;65671;49.976;20.038;2023-05-28T04:31:07;5.82;;;3.25;;
76745;SDS011;65671;49.976;20.038;2023-05-28T04:33:32;7.57;;;3.13;;
76745;SDS011;65671;49.976;20.038;2023-05-28T04:35:58;8.15;;;3.50;;
76745;SDS011;65671;49.976;20.038;2023-05-28T04:38:24;6.22;;;3.47;;
76745;SDS011;65671;49.976;20.038;2023-05-28T04:40:54;5.50;;;3.00;;
76745;SDS011;65671;49.976;20.038;2023-05-28T04:43:20;6.38;;;3.22;;
76745;SDS011;65671;49.976;20.038;2023-05-28T04:45:47;4.35;;;2.80;;
76745;SDS011;65671;49.976;20.038;2023-05-28T04:48:13;8.27;;;3.60;;
76745;SDS011;65671;49.976;20.038;2023-05-28T04:50:38;4.80;;;2.72;;
76745;SDS011;65671;49.976;20.038;2023-05-28T04:53:05;6.57;;;3.60;;
76745;SDS011;65671;49.976;20.038;2023-05-28T04:55:31;5.85;;;2.80;;
76745;SDS011;65671;49.976;20.038;2023-05-28T04:57:56;6.18;;;3.55;;
76745;SDS011;65671;49.976;20.038;2023-05-28T05:00:22;7.50;;;3.85;;
76745;SDS011;65671;49.976;20.038;2023-05-28T05:02:49;5.97;;;3.20;;
76745;SDS011;65671;49.976;20.038;2023-05-28T05:05:16;6.75;;;3.55;;
76745;SDS011;65671;49.976;20.038;2023-05-28T05:07:42;8.02;;;3.47;;
76745;SDS011;65671;49.976;20.038;2023-05-28T05:10:08;6.78;;;3.38;;
76745;SDS011;65671;49.976;20.038;2023-05-28T05:12:35;7.15;;;3.33;;
76745;SDS011;65671;49.976;20.038;2023-05-28T05:15:01;8.55;;;4.03;;
76745;SDS011;65671;49.976;20.038;2023-05-28T05:17:27;7.45;;;3.33;;
76745;SDS011;65671;49.976;20.038;2023-05-28T05:19:53;5.88;;;3.55;;
76745;SDS011;65671;49.976;20.038;2023-05-28T05:22:18;6.20;;;3.38;;
76745;SDS011;65671;49.976;20.038;2023-05-28T05:24:45;8.13;;;3.80;;
76745;SDS011;65671;49.976;20.038;2023-05-28T05:27:12;7.63;;;3.58;;
76745;SDS011;65671;49.976;20.038;2023-05-28T05:29:38;9.63;;;3.97;;
76745;SDS011;65671;49.976;20.038;2023-05-28T05:32:03;6.38;;;3.90;;
76745;SDS011;65671;49.976;20.038;2023-05-28T05:34:29;4.55;;;3.15;;
76745;SDS011;65671;49.976;20.038;2023-05-28T05:36:54;8.68;;;3.95;;
76745;SDS011;65671;49.976;20.038;2023-05-28T05:39:20;9.38;;;4.28;;
76745;SDS011;65671;49.976;20.038;2023-05-28T05:41:45;5.32;;;3.50;;
76745;SDS011;65671;49.976;20.038;2023-05-28T05:44:11;8.18;;;4.13;;
76745;SDS011;65671;49.976;20.038;2023-05-28T05:46:36;5.95;;;3.58;;
76745;SDS011;65671;49.976;20.038;2023-05-28T05:49:02;8.80;;;4.13;;
76745;SDS011;65671;49.976;20.038;2023-05-28T05:51:28;7.70;;;3.95;;
76745;SDS011;65671;49.976;20.038;2023-05-28T05:53:53;7.43;;;3.97;;
76745;SDS011;65671;49.976;20.038;2023-05-28T05:56:19;8.73;;;4.05;;
76745;SDS011;65671;49.976;20.038;2023-05-28T05:58:44;7.03;;;3.95;;
76745;SDS011;65671;49.976;20.038;2023-05-28T06:01:10;7.25;;;3.72;;
76745;SDS011;65671;49.976;20.038;2023-05-28T06:03:36;7.93;;;4.43;;
76745;SDS011;65671;49.976;20.038;2023-05-28T06:06:02;6.88;;;4.43;;
76745;SDS011;65671;49.976;20.038;2023-05-28T06:08:27;6.78;;;3.70;;
76745;SDS011;65671;49.976;20.038;2023-05-28T06:10:53;7.45;;;3.90;;
76745;SDS011;65671;49.976;20.038;2023-05-28T06:13:18;11.95;;;3.83;;
76745;SDS011;65671;49.976;20.038;2023-05-28T06:15:44;7.10;;;4.25;;
76745;SDS011;65671;49.976;20.038;2023-05-28T06:18:10;8.95;;;4.43;;
76745;SDS011;65671;49.976;20.038;2023-05-28T06:20:37;9.07;;;4.43;;
76745;SDS011;65671;49.976;20.038;2023-05-28T06:23:02;7.15;;;4.57;;
76745;SDS011;65671;49.976;20.038;2023-05-28T06:25:28;6.95;;;4.22;;
76745;SDS011;65671;49.976;20.038;2023-05-28T06:27:54;7.15;;;4.57;;
76745;SDS011;65671;49.976;20.038;2023-05-28T06:30:20;6.63;;;4.50;;
76745;SDS011;65671;49.976;20.038;2023-05-28T06:32:45;8.20;;;4.97;;
76745;SDS011;65671;49.976;20.038;2023-05-28T06:35:11;9.68;;;4.65;;
76745;SDS011;65671;49.976;20.038;2023-05-28T06:37:37;13.45;;;5.32;;
76745;SDS011;65671;49.976;20.038;2023-05-28T06:40:02;6.93;;;4.45;;
76745;SDS011;65671;49.976;20.038;2023-05-28T06:42:31;9.80;;;5.22;;
76745;SDS011;65671;49.976;20.038;2023-05-28T06:44:56;8.10;;;3.88;;
76745;SDS011;65671;49.976;20.038;2023-05-28T06:47:24;7.30;;;3.97;;
76745;SDS011;65671;49.976;20.038;2023-05-28T06:49:49;9.23;;;4.18;;
76745;SDS011;65671;49.976;20.038;2023-05-28T06:52:15;8.35;;;4.28;;
76745;SDS011;65671;49.976;20.038;2023-05-28T06:54:41;6.47;;;4.18;;
76745;SDS011;65671;49.976;20.038;2023-05-28T06:57:06;10.98;;;4.63;;
76745;SDS011;65671;49.976;20.038;2023-05-28T06:59:32;9.50;;;4.93;;
76745;SDS011;65671;49.976;20.038;2023-05-28T07:01:57;8.40;;;4.03;;
76745;SDS011;65671;49.976;20.038;2023-05-28T07:04:24;6.72;;;4.53;;
76745;SDS011;65671;49.976;20.038;2023-05-28T07:06:49;8.63;;;4.13;;
76745;SDS011;65671;49.976;20.038;2023-05-28T07:09:15;9.23;;;3.70;;
76745;SDS011;65671;49.976;20.038;2023-05-28T07:11:40;11.70;;;4.75;;
76745;SDS011;65671;49.976;20.038;2023-05-28T07:14:06;10.13;;;4.55;;
76745;SDS011;65671;49.976;20.038;2023-05-28T07:16:31;6.93;;;4.07;;
76745;SDS011;65671;49.976;20.038;2023-05-28T07:18:57;9.32;;;4.10;;
76745;SDS011;65671;49.976;20.038;2023-05-28T07:21:23;8.75;;;4.38;;
76745;SDS011;65671;49.976;20.038;2023-05-28T07:23:48;7.15;;;3.95;;
76745;SDS011;65671;49.976;20.038;2023-05-28T07:26:14;6.43;;;3.85;;
76745;SDS011;65671;49.976;20.038;2023-05-28T07:28:39;6.82;;;3.88;;
76745;SDS011;65671;49.976;20.038;2023-05-28T07:31:05;7.20;;;3.78;;
76745;SDS011;65671;49.976;20.038;2023-05-28T07:33:31;10.30;;;3.67;;
76745;SDS011;65671;49.976;20.038;2023-05-28T07:35:56;5.82;;;4.00;;
76745;SDS011;65671;49.976;20.038;2023-05-28T07:38:22;7.97;;;3.92;;
76745;SDS011;65671;49.976;20.038;2023-05-28T07:40:51;6.85;;;3.90;;
76745;SDS011;65671;49.976;20.038;2023-05-28T07:43:16;7.80;;;3.78;;
76745;SDS011;65671;49.976;20.038;2023-05-28T07:45:42;10.25;;;4.43;;
76745;SDS011;65671;49.976;20.038;2023-05-28T07:48:07;8.15;;;3.80;;
76745;SDS011;65671;49.976;20.038;2023-05-28T07:50:33;6.50;;;3.20;;
76745;SDS011;65671;49.976;20.038;2023-05-28T07:52:59;11.82;;;3.53;;
76745;SDS011;65671;49.976;20.038;2023-05-28T07:55:26;8.35;;;3.65;;
76745;SDS011;65671;49.976;20.038;2023-05-28T07:57:52;5.57;;;3.05;;
76745;SDS011;65671;49.976;20.038;2023-05-28T08:00:17;5.53;;;3.30;;
76745;SDS011;65671;49.976;20.038;2023-05-28T08:02:43;8.35;;;3.63;;
76745;SDS011;65671;49.976;20.038;2023-05-28T08:05:09;7.40;;;3.63;;
76745;SDS011;65671;49.976;20.038;2023-05-28T08:07:35;6.00;;;3.22;;
76745;SDS011;65671;49.976;20.038;2023-05-28T08:10:00;7.10;;;3.10;;
76745;SDS011;65671;49.976;20.038;2023-05-28T08:12:26;5.55;;;3.53;;
76745;SDS011;65671;49.976;20.038;2023-05-28T08:14:52;5.68;;;3.38;;
76745;SDS011;65671;49.976;20.038;2023-05-28T08:17:20;6.63;;;3.13;;
76745;SDS011;65671;49.976;20.038;2023-05-28T08:19:46;8.40;;;3.00;;
76745;SDS011;65671;49.976;20.038;2023-05-28T08:22:11;5.45;;;2.95;;
76745;SDS011;65671;49.976;20.038;2023-05-28T08:24:37;5.88;;;3.10;;
76745;SDS011;65671;49.976;20.038;2023-05-28T08:27:03;6.13;;;2.80;;
76745;SDS011;65671;49.976;20.038;2023-05-28T08:29:28;6.93;;;3.03;;
76745;SDS011;65671;49.976;20.038;2023-05-28T08:31:54;4.40;;;2.78;;
76745;SDS011;65671;49.976;20.038;2023-05-28T08:34:19;7.13;;;3.00;;
76745;SDS011;65671;49.976;20.038;2023-05-28T08:36:45;5.35;;;2.80;;
76745;SDS011;65671;49.976;20.038;2023-05-28T08:39:11;4.60;;;2.45;;
76745;SDS011;65671;49.976;20.038;2023-05-28T08:41:37;6.35;;;3.00;;
76745;SDS011;65671;49.976;20.038;2023-05-28T08:44:03;4.78;;;2.90;;
76745;SDS011;65671;49.976;20.038;2023-05-28T08:46:29;6.53;;;3.03;;
76745;SDS011;65671;49.976;20.038;2023-05-28T08:48:56;4.93;;;2.47;;
76745;SDS011;65671;49.976;20.038;2023-05-28T08:51:23;3.38;;;2.25;;
76745;SDS011;65671;49.976;20.038;2023-05-28T08:53:53;4.45;;;2.90;;
76745;SDS011;65671;49.976;20.038;2023-05-28T08:56:20;5.13;;;2.38;;
76745;SDS011;65671;49.976;20.038;2023-05-28T08:58:46;3.90;;;2.30;;
76745;SDS011;65671;49.976;20.038;2023-05-28T09:01:12;5.72;;;2.20;;
76745;SDS011;65671;49.976;20.038;2023-05-28T09:03:38;3.80;;;2.05;;
76745;SDS011;65671;49.976;20.038;2023-05-28T09:06:06;4.40;;;2.25;;
76745;SDS011;65671;49.976;20.038;2023-05-28T09:08:33;4.38;;;2.20;;
76745;SDS011;65671;49.976;20.038;2023-05-28T09:11:08;4.80;;;2.33;;
76745;SDS011;65671;49.976;20.038;2023-05-28T09:13:45;7.32;;;2.63;;
76745;SDS011;65671;49.976;20.038;2023-05-28T09:16:18;9.32;;;3.53;;
76745;SDS011;65671;49.976;20.038;2023-05-28T09:18:49;5.07;;;2.20;;
76745;SDS011;65671;49.976;20.038;2023-05-28T09:21:16;7.53;;;3.10;;
76745;SDS011;65671;49.976;20.038;2023-05-28T09:23:43;5.63;;;2.42;;
76745;SDS011;65671;49.976;20.038;2023-05-28T09:26:11;4.05;;;2.05;;
76745;SDS011;65671;49.976;20.038;2023-05-28T09:28:40;3.80;;;2.13;;
76745;SDS011;65671;49.976;20.038;2023-05-28T09:31:07;3.58;;;2.40;;
76745;SDS011;65671;49.976;20.038;2023-05-28T09:33:33;13.85;;;3.40;;
76745;SDS011;65671;49.976;20.038;2023-05-28T09:36:00;7.03;;;2.70;;
76745;SDS011;65671;49.976;20.038;2023-05-28T09:38:26;5.43;;;2.22;;
76745;SDS011;65671;49.976;20.038;2023-05-28T09:41:02;5.25;;;2.88;;
76745;SDS011;65671;49.976;20.038;2023-05-28T09:43:28;7.38;;;2.83;;
76745;SDS011;65671;49.976;20.038;2023-05-28T09:46:08;5.50;;;2.80;;
76745;SDS011;65671;49.976;20.038;2023-05-28T09:48:34;5.43;;;2.30;;
76745;SDS011;65671;49.976;20.038;2023-05-28T09:51:02;8.05;;;2.88;;
76745;SDS011;65671;49.976;20.038;2023-05-28T09:53:30;7.15;;;2.92;;
76745;SDS011;65671;49.976;20.038;2023-05-28T09:55:59;4.90;;;2.63;;
76745;SDS011;65671;49.976;20.038;2023-05-28T09:58:32;6.00;;;3.00;;
76745;SDS011;65671;49.976;20.038;2023-05-28T10:01:08;4.00;;;2.67;;
76745;SDS011;65671;49.976;20.038;2023-05-28T10:03:39;7.22;;;2.75;;
76745;SDS011;65671;49.976;20.038;2023-05-28T10:06:15;5.50;;;2.60;;
76745;SDS011;65671;49.976;20.038;2023-05-28T10:08:43;8.57;;;3.00;;
76745;SDS011;65671;49.976;20.038;2023-05-28T10:11:15;5.53;;;2.60;;
76745;SDS011;65671;49.976;20.038;2023-05-28T10:13:42;3.72;;;2.53;;
76745;SDS011;65671;49.976;20.038;2023-05-28T10:16:08;6.00;;;2.90;;
76745;SDS011;65671;49.976;20.038;2023-05-28T10:18:35;4.28;;;2.40;;
76745;SDS011;65671;49.976;20.038;2023-05-28T10:21:01;4.25;;;2.70;;
76745;SDS011;65671;49.976;20.038;2023-05-28T10:23:27;4.82;;;2.42;;
76745;SDS011;65671;49.976;20.038;2023-05-28T10:25:54;5.32;;;2.75;;
76745;SDS011;65671;49.976;20.038;2023-05-28T10:28:20;6.28;;;2.60;;
76745;SDS011;65671;49.976;20.038;2023-05-28T10:30:47;3.85;;;2.50;;
76745;SDS011;65671;49.976;20.038;2023-05-28T10:33:26;5.57;;;2.83;;
76745;SDS011;65671;49.976;20.038;2023-05-28T10:35:56;3.67;;;2.17;;
76745;SDS011;65671;49.976;20.038;2023-05-28T10:38:24;5.28;;;2.50;;
76745;SDS011;65671;49.976;20.038;2023-05-28T10:40:50;7.18;;;2.75;;
76745;SDS011;65671;49.976;20.038;2023-05-28T10:46:37;5.85;;;2.47;;
76745;SDS011;65671;49.976;20.038;2023-05-28T10:57:11;4.30;;;2.33;;
76745;SDS011;65671;49.976;20.038;2023-05-28T11:02:17;5.30;;;2.33;;
76745;SDS011;65671;49.976;20.038;2023-05-28T11:04:54;4.07;;;2.40;;
76745;SDS011;65671;49.976;20.038;2023-05-28T11:07:22;4.32;;;2.85;;
76745;SDS011;65671;49.976;20.038;2023-05-28T11:09:55;4.80;;;2.33;;
76745;SDS011;65671;49.976;20.038;2023-05-28T11:12:24;5.05;;;2.67;;
76745;SDS011;65671;49.976;20.038;2023-05-28T11:14:51;8.35;;;2.65;;
76745;SDS011;65671;49.976;20.038;2023-05-28T11:17:17;4.72;;;2.20;;
76745;SDS011;65671;49.976;20.038;2023-05-28T11:22:10;4.78;;;2.63;;
76745;SDS011;65671;49.976;20.038;2023-05-28T11:24:53;6.80;;;2.40;;
76745;SDS011;65671;49.976;20.038;2023-05-28T11:27:26;4.25;;;2.60;;
76745;SDS011;65671;49.976;20.038;2023-05-28T11:29:54;5.03;;;2.50;;
76745;SDS011;65671;49.976;20.038;2023-05-28T11:32:21;5.00;;;2.40;;
76745;SDS011;65671;49.976;20.038;2023-05-28T11:34:48;7.20;;;2.45;;
76745;SDS011;65671;49.976;20.038;2023-05-28T11:37:15;3.70;;;2.35;;
76745;SDS011;65671;49.976;20.038;2023-05-28T11:39:51;9.82;;;3.58;;
76745;SDS011;65671;49.976;20.038;2023-05-28T11:42:18;5.18;;;2.67;;
76745;SDS011;65671;49.976;20.038;2023-05-28T11:44:45;5.35;;;2.42;;
76745;SDS011;65671;49.976;20.038;2023-05-28T11:47:11;5.72;;;2.78;;
76745;SDS011;65671;49.976;20.038;2023-05-28T11:49:37;5.50;;;2.40;;
76745;SDS011;65671;49.976;20.038;2023-05-28T11:52:03;6.00;;;2.50;;
76745;SDS011;65671;49.976;20.038;2023-05-28T11:54:29;5.32;;;2.53;;
76745;SDS011;65671;49.976;20.038;2023-05-28T11:56:54;5.85;;;2.33;;
76745;SDS011;65671;49.976;20.038;2023-05-28T11:59:20;6.32;;;2.47;;
76745;SDS011;65671;49.976;20.038;2023-05-28T12:01:46;5.35;;;2.47;;
76745;SDS011;65671;49.976;20.038;2023-05-28T12:04:12;3.33;;;2.38;;
76745;SDS011;65671;49.976;20.038;2023-05-28T12:06:53;4.30;;;2.25;;
76745;SDS011;65671;49.976;20.038;2023-05-28T12:09:19;6.25;;;2.30;;
76745;SDS011;65671;49.976;20.038;2023-05-28T12:12:00;3.67;;;2.53;;
76745;SDS011;65671;49.976;20.038;2023-05-28T12:14:29;4.35;;;2.33;;
76745;SDS011;65671;49.976;20.038;2023-05-28T12:17:07;5.28;;;2.63;;
76745;SDS011;65671;49.976;20.038;2023-05-28T12:19:36;5.78;;;3.28;;
76745;SDS011;65671;49.976;20.038;2023-05-28T12:22:04;4.90;;;2.10;;
76745;SDS011;65671;49.976;20.038;2023-05-28T12:24:39;6.53;;;2.40;;
76745;SDS011;65671;49.976;20.038;2023-05-28T12:27:11;5.40;;;2.78;;
76745;SDS011;65671;49.976;20.038;2023-05-28T12:29:36;5.63;;;2.40;;
76745;SDS011;65671;49.976;20.038;2023-05-28T12:32:02;5.97;;;2.47;;
76745;SDS011;65671;49.976;20.038;2023-05-28T12:34:29;3.90;;;2.38;;
76745;SDS011;65671;49.976;20.038;2023-05-28T12:36:55;4.82;;;2.75;;
76745;SDS011;65671;49.976;20.038;2023-05-28T12:39:21;5.75;;;2.20;;
76745;SDS011;65671;49.976;20.038;2023-05-28T12:41:46;5.63;;;2.25;;
76745;SDS011;65671;49.976;20.038;2023-05-28T12:44:13;6.70;;;2.30;;
76745;SDS011;65671;49.976;20.038;2023-05-28T12:46:39;3.13;;;2.25;;
76745;SDS011;65671;49.976;20.038;2023-05-28T12:49:05;5.82;;;2.08;;
76745;SDS011;65671;49.976;20.038;2023-05-28T12:51:30;3.75;;;1.83;;
76745;SDS011;65671;49.976;20.038;2023-05-28T12:53:57;3.03;;;2.05;;
76745;SDS011;65671;49.976;20.038;2023-05-28T12:56:25;4.47;;;2.00;;
76745;SDS011;65671;49.976;20.038;2023-05-28T12:58:50;4.65;;;2.05;;
76745;SDS011;65671;49.976;20.038;2023-05-28T13:01:17;5.20;;;2.25;;
76745;SDS011;65671;49.976;20.038;2023-05-28T13:03:43;7.07;;;2.25;;
76745;SDS011;65671;49.976;20.038;2023-05-28T13:06:09;4.40;;;2.20;;
76745;SDS011;65671;49.976;20.038;2023-05-28T13:08:37;5.32;;;2.22;;
76745;SDS011;65671;49.976;20.038;2023-05-28T13:11:02;3.40;;;2.08;;
76745;SDS011;65671;49.976;20.038;2023-05-28T13:13:28;8.35;;;2.38;;
76745;SDS011;65671;49.976;20.038;2023-05-28T13:15:54;3.22;;;2.00;;
76745;SDS011;65671;49.976;20.038;2023-05-28T13:18:19;5.30;;;2.40;;
76745;SDS011;65671;49.976;20.038;2023-05-28T13:20:46;9.15;;;3.28;;
76745;SDS011;65671;49.976;20.038;2023-05-28T13:23:12;4.60;;;2.58;;
76745;SDS011;65671;49.976;20.038;2023-05-28T13:25:37;3.92;;;1.95;;
76745;SDS011;65671;49.976;20.038;2023-05-28T13:28:03;7.35;;;2.45;;
76745;SDS011;65671;49.976;20.038;2023-05-28T13:30:29;6.10;;;2.17;;
76745;SDS011;65671;49.976;20.038;2023-05-28T13:32:55;5.60;;;2.50;;
76745;SDS011;65671;49.976;20.038;2023-05-28T13:35:20;7.32;;;2.25;;
76745;SDS011;65671;49.976;20.038;2023-05-28T13:37:46;5.60;;;2.45;;
76745;SDS011;65671;49.976;20.038;2023-05-28T13:40:12;5.53;;;2.53;;
76745;SDS011;65671;49.976;20.038;2023-05-28T13:42:39;4.43;;;2.33;;
76745;SDS011;65671;49.976;20.038;2023-05-28T13:45:05;4.50;;;2.85;;
76745;SDS011;65671;49.976;20.038;2023-05-28T13:47:35;4.78;;;2.05;;
76745;SDS011;65671;49.976;20.038;2023-05-28T13:50:02;4.50;;;2.35;;
76745;SDS011;65671;49.976;20.038;2023-05-28T13:52:28;3.95;;;2.50;;
76745;SDS011;65671;49.976;20.038;2023-05-28T13:54:54;4.55;;;2.00;;
76745;SDS011;65671;49.976;20.038;2023-05-28T13:57:20;8.90;;;2.10;;
76745;SDS011;65671;49.976;20.038;2023-05-28T13:59:46;2.85;;;2.10;;
76745;SDS011;65671;49.976;20.038;2023-05-28T14:02:12;8.65;;;2.95;;
76745;SDS011;65671;49.976;20.038;2023-05-28T14:04:38;4.65;;;2.20;;
76745;SDS011;65671;49.976;20.038;2023-05-28T14:07:03;3.72;;;2.20;;
76745;SDS011;65671;49.976;20.038;2023-05-28T14:09:29;8.07;;;2.20;;
76745;SDS011;65671;49.976;20.038;2023-05-28T14:11:56;5.70;;;2.40;;
76745;SDS011;65671;49.976;20.038;2023-05-28T14:14:22;4.05;;;2.00;;
76745;SDS011;65671;49.976;20.038;2023-05-28T14:16:47;4.70;;;2.08;;
76745;SDS011;65671;49.976;20.038;2023-05-28T14:19:13;6.93;;;2.40;;
76745;SDS011;65671;49.976;20.038;2023-05-28T14:21:38;5.03;;;2.10;;
76745;SDS011;65671;49.976;20.038;2023-05-28T14:24:06;4.25;;;2.47;;
76745;SDS011;65671;49.976;20.038;2023-05-28T14:26:32;5.70;;;2.28;;
76745;SDS011;65671;49.976;20.038;2023-05-28T14:28:57;6.18;;;2.20;;
76745;SDS011;65671;49.976;20.038;2023-05-28T14:31:23;3.78;;;2.20;;
76745;SDS011;65671;49.976;20.038;2023-05-28T14:33:48;3.67;;;2.38;;
76745;SDS011;65671;49.976;20.038;2023-05-28T14:36:14;3.90;;;2.30;;
76745;SDS011;65671;49.976;20.038;2023-05-28T14:38:39;6.72;;;2.50;;
76745;SDS011;65671;49.976;20.038;2023-05-28T14:41:05;3.95;;;2.13;;
76745;SDS011;65671;49.976;20.038;2023-05-28T14:43:30;5.50;;;2.38;;
76745;SDS011;65671;49.976;20.038;2023-05-28T14:45:56;3.78;;;2.47;;